sensor_id;sensor_type;location;lat;lon;timestamp;P1;durP1;ratioP1;P2;durP2;ratioP2
15669;SDS011;18524;45.190;5.732;2023-07-13T00:04:13;5.30;;;4.73;;
15669;SDS011;18524;45.190;5.732;2023-07-13T00:09:04;5.27;;;4.80;;
15669;SDS011;18524;45.190;5.732;2023-07-13T00:13:54;6.50;;;4.87;;
15669;SDS011;18524;45.190;5.732;2023-07-13T00:18:45;7.50;;;6.60;;
15669;SDS011;18524;45.190;5.732;2023-07-13T00:23:37;6.20;;;5.20;;
15669;SDS011;18524;45.190;5.732;2023-07-13T00:28:29;6.10;;;5.40;;
15669;SDS011;18524;45.190;5.732;2023-07-13T00:33:20;6.90;;;6.23;;
15669;SDS011;18524;45.190;5.732;2023-07-13T00:38:11;7.73;;;6.83;;
15669;SDS011;18524;45.190;5.732;2023-07-13T00:43:02;9.57;;;7.77;;
15669;SDS011;18524;45.190;5.732;2023-07-13T00:47:55;9.30;;;7.90;;
15669;SDS011;18524;45.190;5.732;2023-07-13T00:52:48;8.50;;;7.70;;
15669;SDS011;18524;45.190;5.732;2023-07-13T00:57:44;7.60;;;6.80;;
15669;SDS011;18524;45.190;5.732;2023-07-13T01:02:35;10.63;;;6.90;;
15669;SDS011;18524;45.190;5.732;2023-07-13T01:07:28;8.70;;;7.13;;
15669;SDS011;18524;45.190;5.732;2023-07-13T01:12:19;8.63;;;6.93;;
15669;SDS011;18524;45.190;5.732;2023-07-13T01:17:10;6.37;;;5.77;;
15669;SDS011;18524;45.190;5.732;2023-07-13T01:22:01;6.13;;;4.67;;
15669;SDS011;18524;45.190;5.732;2023-07-13T01:26:53;4.17;;;3.80;;
15669;SDS011;18524;45.190;5.732;2023-07-13T01:31:43;4.53;;;3.20;;
15669;SDS011;18524;45.190;5.732;2023-07-13T01:36:34;4.20;;;3.00;;
15669;SDS011;18524;45.190;5.732;2023-07-13T01:41:26;4.03;;;2.70;;
15669;SDS011;18524;45.190;5.732;2023-07-13T01:46:16;4.07;;;2.50;;
15669;SDS011;18524;45.190;5.732;2023-07-13T01:51:06;2.80;;;2.60;;
15669;SDS011;18524;45.190;5.732;2023-07-13T01:55:57;2.90;;;2.53;;
15669;SDS011;18524;45.190;5.732;2023-07-13T02:00:48;3.00;;;2.73;;
15669;SDS011;18524;45.190;5.732;2023-07-13T02:05:39;3.93;;;2.90;;
15669;SDS011;18524;45.190;5.732;2023-07-13T02:10:30;2.93;;;2.60;;
15669;SDS011;18524;45.190;5.732;2023-07-13T02:15:20;2.87;;;2.60;;
15669;SDS011;18524;45.190;5.732;2023-07-13T02:20:11;3.53;;;2.50;;
15669;SDS011;18524;45.190;5.732;2023-07-13T02:25:01;2.57;;;2.27;;
15669;SDS011;18524;45.190;5.732;2023-07-13T02:29:52;5.17;;;2.40;;
15669;SDS011;18524;45.190;5.732;2023-07-13T02:34:43;4.40;;;2.40;;
15669;SDS011;18524;45.190;5.732;2023-07-13T02:39:33;2.60;;;2.40;;
15669;SDS011;18524;45.190;5.732;2023-07-13T02:44:24;4.67;;;2.50;;
15669;SDS011;18524;45.190;5.732;2023-07-13T02:49:14;3.47;;;2.60;;
15669;SDS011;18524;45.190;5.732;2023-07-13T02:54:05;3.07;;;2.40;;
15669;SDS011;18524;45.190;5.732;2023-07-13T02:58:55;2.37;;;2.17;;
15669;SDS011;18524;45.190;5.732;2023-07-13T03:03:46;3.67;;;2.00;;
15669;SDS011;18524;45.190;5.732;2023-07-13T03:08:41;2.00;;;1.60;;
15669;SDS011;18524;45.190;5.732;2023-07-13T03:13:31;3.60;;;2.20;;
15669;SDS011;18524;45.190;5.732;2023-07-13T03:18:21;5.83;;;2.60;;
15669;SDS011;18524;45.190;5.732;2023-07-13T03:23:12;3.03;;;1.87;;
15669;SDS011;18524;45.190;5.732;2023-07-13T03:28:03;2.37;;;2.17;;
15669;SDS011;18524;45.190;5.732;2023-07-13T03:32:54;3.00;;;2.20;;
15669;SDS011;18524;45.190;5.732;2023-07-13T03:37:44;3.57;;;2.10;;
15669;SDS011;18524;45.190;5.732;2023-07-13T03:42:35;2.67;;;2.07;;
15669;SDS011;18524;45.190;5.732;2023-07-13T03:47:25;2.17;;;1.97;;
15669;SDS011;18524;45.190;5.732;2023-07-13T03:52:16;2.37;;;2.00;;
15669;SDS011;18524;45.190;5.732;2023-07-13T03:57:06;2.03;;;1.80;;
15669;SDS011;18524;45.190;5.732;2023-07-13T04:02:00;2.90;;;1.33;;
15669;SDS011;18524;45.190;5.732;2023-07-13T04:06:51;2.33;;;1.70;;
15669;SDS011;18524;45.190;5.732;2023-07-13T04:11:43;3.10;;;1.73;;
15669;SDS011;18524;45.190;5.732;2023-07-13T04:16:33;2.10;;;1.90;;
15669;SDS011;18524;45.190;5.732;2023-07-13T04:21:24;1.83;;;1.50;;
15669;SDS011;18524;45.190;5.732;2023-07-13T04:26:14;2.17;;;1.40;;
15669;SDS011;18524;45.190;5.732;2023-07-13T04:31:04;2.40;;;1.47;;
15669;SDS011;18524;45.190;5.732;2023-07-13T04:35:55;1.33;;;1.00;;
15669;SDS011;18524;45.190;5.732;2023-07-13T04:40:49;1.60;;;1.10;;
15669;SDS011;18524;45.190;5.732;2023-07-13T04:45:39;0.90;;;0.90;;
15669;SDS011;18524;45.190;5.732;2023-07-13T04:50:30;2.10;;;1.10;;
15669;SDS011;18524;45.190;5.732;2023-07-13T04:55:21;1.90;;;1.30;;
15669;SDS011;18524;45.190;5.732;2023-07-13T05:00:11;1.47;;;1.27;;
15669;SDS011;18524;45.190;5.732;2023-07-13T05:05:02;2.07;;;1.37;;
15669;SDS011;18524;45.190;5.732;2023-07-13T05:09:53;1.30;;;1.20;;
15669;SDS011;18524;45.190;5.732;2023-07-13T05:14:44;2.43;;;1.00;;
15669;SDS011;18524;45.190;5.732;2023-07-13T05:19:35;1.67;;;1.00;;
15669;SDS011;18524;45.190;5.732;2023-07-13T05:24:25;4.00;;;1.10;;
15669;SDS011;18524;45.190;5.732;2023-07-13T05:29:16;1.40;;;1.30;;
15669;SDS011;18524;45.190;5.732;2023-07-13T05:34:06;3.17;;;1.30;;
15669;SDS011;18524;45.190;5.732;2023-07-13T05:38:57;3.03;;;1.60;;
15669;SDS011;18524;45.190;5.732;2023-07-13T05:43:47;2.33;;;1.43;;
15669;SDS011;18524;45.190;5.732;2023-07-13T05:48:37;1.50;;;1.40;;
15669;SDS011;18524;45.190;5.732;2023-07-13T05:53:28;2.13;;;1.27;;
15669;SDS011;18524;45.190;5.732;2023-07-13T05:58:18;1.40;;;1.30;;
15669;SDS011;18524;45.190;5.732;2023-07-13T06:03:09;1.93;;;1.43;;
15669;SDS011;18524;45.190;5.732;2023-07-13T06:08:00;1.53;;;1.40;;
15669;SDS011;18524;45.190;5.732;2023-07-13T06:12:50;2.17;;;1.37;;
15669;SDS011;18524;45.190;5.732;2023-07-13T06:17:41;2.00;;;1.30;;
15669;SDS011;18524;45.190;5.732;2023-07-13T06:22:31;1.23;;;1.10;;
15669;SDS011;18524;45.190;5.732;2023-07-13T06:27:21;1.80;;;1.23;;
15669;SDS011;18524;45.190;5.732;2023-07-13T06:32:12;1.30;;;1.20;;
15669;SDS011;18524;45.190;5.732;2023-07-13T06:37:02;3.25;;;1.23;;
15669;SDS011;18524;45.190;5.732;2023-07-13T06:41:52;3.63;;;1.50;;
15669;SDS011;18524;45.190;5.732;2023-07-13T06:46:43;3.37;;;1.23;;
15669;SDS011;18524;45.190;5.732;2023-07-13T06:51:33;2.57;;;1.80;;
15669;SDS011;18524;45.190;5.732;2023-07-13T06:56:23;1.53;;;1.40;;
15669;SDS011;18524;45.190;5.732;2023-07-13T07:01:14;2.70;;;1.20;;
15669;SDS011;18524;45.190;5.732;2023-07-13T07:06:18;1.70;;;0.90;;
15669;SDS011;18524;45.190;5.732;2023-07-13T07:11:15;4.10;;;0.97;;
15669;SDS011;18524;45.190;5.732;2023-07-13T07:16:12;1.97;;;1.30;;
15669;SDS011;18524;45.190;5.732;2023-07-13T07:21:02;2.67;;;1.30;;
15669;SDS011;18524;45.190;5.732;2023-07-13T07:25:53;1.90;;;1.00;;
15669;SDS011;18524;45.190;5.732;2023-07-13T07:30:44;1.73;;;1.20;;
15669;SDS011;18524;45.190;5.732;2023-07-13T07:35:35;3.33;;;1.40;;
15669;SDS011;18524;45.190;5.732;2023-07-13T07:40:26;1.90;;;1.60;;
15669;SDS011;18524;45.190;5.732;2023-07-13T07:45:16;6.07;;;1.90;;
15669;SDS011;18524;45.190;5.732;2023-07-13T07:50:07;3.33;;;1.60;;
15669;SDS011;18524;45.190;5.732;2023-07-13T07:54:57;3.87;;;1.63;;
15669;SDS011;18524;45.190;5.732;2023-07-13T07:59:48;3.90;;;1.60;;
15669;SDS011;18524;45.190;5.732;2023-07-13T08:04:38;3.77;;;1.43;;
15669;SDS011;18524;45.190;5.732;2023-07-13T08:09:28;5.87;;;2.10;;
15669;SDS011;18524;45.190;5.732;2023-07-13T08:14:19;2.80;;;1.40;;
15669;SDS011;18524;45.190;5.732;2023-07-13T08:19:09;4.60;;;1.50;;
15669;SDS011;18524;45.190;5.732;2023-07-13T08:24:01;3.17;;;1.10;;
15669;SDS011;18524;45.190;5.732;2023-07-13T08:28:51;1.80;;;1.20;;
15669;SDS011;18524;45.190;5.732;2023-07-13T08:33:42;1.93;;;1.20;;
15669;SDS011;18524;45.190;5.732;2023-07-13T08:38:32;1.90;;;1.30;;
15669;SDS011;18524;45.190;5.732;2023-07-13T08:43:27;2.87;;;1.30;;
15669;SDS011;18524;45.190;5.732;2023-07-13T08:48:23;2.10;;;1.50;;
15669;SDS011;18524;45.190;5.732;2023-07-13T08:53:16;2.53;;;1.60;;
15669;SDS011;18524;45.190;5.732;2023-07-13T08:58:13;2.27;;;1.70;;
15669;SDS011;18524;45.190;5.732;2023-07-13T09:03:05;3.20;;;1.53;;
15669;SDS011;18524;45.190;5.732;2023-07-13T09:13:27;3.67;;;1.70;;
15669;SDS011;18524;45.190;5.732;2023-07-13T09:23:18;3.20;;;1.63;;
15669;SDS011;18524;45.190;5.732;2023-07-13T09:33:04;3.17;;;1.47;;
15669;SDS011;18524;45.190;5.732;2023-07-13T09:37:58;4.63;;;1.70;;
15669;SDS011;18524;45.190;5.732;2023-07-13T09:42:53;2.77;;;1.73;;
15669;SDS011;18524;45.190;5.732;2023-07-13T09:47:46;3.13;;;1.50;;
15669;SDS011;18524;45.190;5.732;2023-07-13T09:57:38;2.67;;;1.80;;
15669;SDS011;18524;45.190;5.732;2023-07-13T10:02:38;2.00;;;1.20;;
15669;SDS011;18524;45.190;5.732;2023-07-13T10:07:29;1.60;;;1.50;;
15669;SDS011;18524;45.190;5.732;2023-07-13T10:12:21;1.53;;;1.43;;
15669;SDS011;18524;45.190;5.732;2023-07-13T10:17:14;2.77;;;1.47;;
15669;SDS011;18524;45.190;5.732;2023-07-13T10:27:20;1.80;;;1.60;;
15669;SDS011;18524;45.190;5.732;2023-07-13T10:32:24;1.70;;;1.40;;
15669;SDS011;18524;45.190;5.732;2023-07-13T10:37:25;2.33;;;1.67;;
15669;SDS011;18524;45.190;5.732;2023-07-13T10:42:20;2.17;;;1.70;;
15669;SDS011;18524;45.190;5.732;2023-07-13T10:47:19;2.50;;;1.40;;
15669;SDS011;18524;45.190;5.732;2023-07-13T10:57:31;2.60;;;1.40;;
15669;SDS011;18524;45.190;5.732;2023-07-13T11:02:32;4.17;;;1.60;;
15669;SDS011;18524;45.190;5.732;2023-07-13T11:07:27;2.83;;;1.67;;
15669;SDS011;18524;45.190;5.732;2023-07-13T11:22:21;3.43;;;1.70;;
15669;SDS011;18524;45.190;5.732;2023-07-13T11:27:27;1.83;;;1.60;;
15669;SDS011;18524;45.190;5.732;2023-07-13T11:32:22;2.67;;;1.90;;
15669;SDS011;18524;45.190;5.732;2023-07-13T11:37:16;4.23;;;2.30;;
15669;SDS011;18524;45.190;5.732;2023-07-13T11:42:10;4.93;;;2.63;;
15669;SDS011;18524;45.190;5.732;2023-07-13T11:47:24;2.30;;;1.77;;
15669;SDS011;18524;45.190;5.732;2023-07-13T11:52:18;2.23;;;1.73;;
15669;SDS011;18524;45.190;5.732;2023-07-13T12:02:18;1.83;;;1.70;;
15669;SDS011;18524;45.190;5.732;2023-07-13T12:07:28;2.57;;;1.50;;
15669;SDS011;18524;45.190;5.732;2023-07-13T12:12:21;3.87;;;1.60;;
15669;SDS011;18524;45.190;5.732;2023-07-13T12:17:15;1.70;;;1.57;;
15669;SDS011;18524;45.190;5.732;2023-07-13T12:22:10;2.03;;;1.50;;
15669;SDS011;18524;45.190;5.732;2023-07-13T12:27:03;3.10;;;1.60;;
15669;SDS011;18524;45.190;5.732;2023-07-13T12:31:55;2.07;;;1.60;;
15669;SDS011;18524;45.190;5.732;2023-07-13T12:36:47;1.90;;;1.57;;
15669;SDS011;18524;45.190;5.732;2023-07-13T12:41:40;1.93;;;1.53;;
15669;SDS011;18524;45.190;5.732;2023-07-13T12:46:30;2.37;;;1.53;;
15669;SDS011;18524;45.190;5.732;2023-07-13T12:51:22;3.13;;;1.30;;
15669;SDS011;18524;45.190;5.732;2023-07-13T12:56:18;1.60;;;1.30;;
15669;SDS011;18524;45.190;5.732;2023-07-13T13:01:13;1.90;;;1.60;;
15669;SDS011;18524;45.190;5.732;2023-07-13T13:11:11;2.30;;;1.70;;
15669;SDS011;18524;45.190;5.732;2023-07-13T13:16:19;3.90;;;1.60;;
15669;SDS011;18524;45.190;5.732;2023-07-13T13:21:11;2.40;;;1.50;;
15669;SDS011;18524;45.190;5.732;2023-07-13T13:26:02;1.80;;;1.40;;
15669;SDS011;18524;45.190;5.732;2023-07-13T13:30:53;1.30;;;1.20;;
15669;SDS011;18524;45.190;5.732;2023-07-13T13:35:43;2.83;;;1.47;;
15669;SDS011;18524;45.190;5.732;2023-07-13T13:40:34;3.50;;;1.80;;
15669;SDS011;18524;45.190;5.732;2023-07-13T13:45:24;2.47;;;1.47;;
15669;SDS011;18524;45.190;5.732;2023-07-13T13:50:16;1.63;;;1.30;;
15669;SDS011;18524;45.190;5.732;2023-07-13T13:55:16;1.67;;;1.40;;
15669;SDS011;18524;45.190;5.732;2023-07-13T14:00:09;2.90;;;1.37;;
15669;SDS011;18524;45.190;5.732;2023-07-13T14:05:09;2.33;;;1.37;;
15669;SDS011;18524;45.190;5.732;2023-07-13T14:10:08;2.40;;;1.57;;
15669;SDS011;18524;45.190;5.732;2023-07-13T14:15:02;1.90;;;1.47;;
15669;SDS011;18524;45.190;5.732;2023-07-13T14:19:52;2.23;;;1.60;;
15669;SDS011;18524;45.190;5.732;2023-07-13T14:24:51;2.43;;;1.40;;
15669;SDS011;18524;45.190;5.732;2023-07-13T14:29:43;2.90;;;1.40;;
15669;SDS011;18524;45.190;5.732;2023-07-13T14:34:33;1.83;;;1.73;;
15669;SDS011;18524;45.190;5.732;2023-07-13T14:39:24;1.77;;;1.60;;
15669;SDS011;18524;45.190;5.732;2023-07-13T14:44:15;2.67;;;1.70;;
15669;SDS011;18524;45.190;5.732;2023-07-13T14:49:17;2.27;;;1.47;;
15669;SDS011;18524;45.190;5.732;2023-07-13T14:54:10;2.80;;;1.40;;
15669;SDS011;18524;45.190;5.732;2023-07-13T14:59:01;1.50;;;1.27;;
15669;SDS011;18524;45.190;5.732;2023-07-13T15:03:52;2.37;;;1.80;;
15669;SDS011;18524;45.190;5.732;2023-07-13T15:08:42;2.10;;;1.53;;
15669;SDS011;18524;45.190;5.732;2023-07-13T15:13:33;1.80;;;1.57;;
15669;SDS011;18524;45.190;5.732;2023-07-13T15:18:24;3.97;;;1.77;;
15669;SDS011;18524;45.190;5.732;2023-07-13T15:23:17;1.50;;;1.20;;
15669;SDS011;18524;45.190;5.732;2023-07-13T15:28:08;1.70;;;1.60;;
15669;SDS011;18524;45.190;5.732;2023-07-13T15:33:00;3.43;;;1.50;;
15669;SDS011;18524;45.190;5.732;2023-07-13T15:37:59;1.60;;;1.30;;
15669;SDS011;18524;45.190;5.732;2023-07-13T15:42:49;1.97;;;1.37;;
15669;SDS011;18524;45.190;5.732;2023-07-13T15:47:39;2.63;;;1.37;;
15669;SDS011;18524;45.190;5.732;2023-07-13T15:52:30;1.20;;;1.10;;
15669;SDS011;18524;45.190;5.732;2023-07-13T15:57:22;3.00;;;1.40;;
15669;SDS011;18524;45.190;5.732;2023-07-13T16:02:18;1.73;;;1.30;;
15669;SDS011;18524;45.190;5.732;2023-07-13T16:07:10;2.17;;;1.43;;
15669;SDS011;18524;45.190;5.732;2023-07-13T16:12:03;2.57;;;1.30;;
15669;SDS011;18524;45.190;5.732;2023-07-13T16:17:00;2.10;;;1.63;;
15669;SDS011;18524;45.190;5.732;2023-07-13T16:21:50;2.13;;;1.47;;
15669;SDS011;18524;45.190;5.732;2023-07-13T16:26:41;2.50;;;1.70;;
15669;SDS011;18524;45.190;5.732;2023-07-13T16:31:34;5.20;;;1.80;;
15669;SDS011;18524;45.190;5.732;2023-07-13T16:36:25;2.43;;;1.50;;
15669;SDS011;18524;45.190;5.732;2023-07-13T16:41:16;1.63;;;1.43;;
15669;SDS011;18524;45.190;5.732;2023-07-13T16:46:07;2.13;;;1.60;;
15669;SDS011;18524;45.190;5.732;2023-07-13T16:51:01;2.13;;;1.70;;
15669;SDS011;18524;45.190;5.732;2023-07-13T16:55:55;2.73;;;1.87;;
15669;SDS011;18524;45.190;5.732;2023-07-13T17:00:46;3.23;;;1.60;;
15669;SDS011;18524;45.190;5.732;2023-07-13T17:05:38;2.83;;;1.57;;
15669;SDS011;18524;45.190;5.732;2023-07-13T17:10:31;2.10;;;1.50;;
15669;SDS011;18524;45.190;5.732;2023-07-13T17:15:22;2.40;;;1.50;;
15669;SDS011;18524;45.190;5.732;2023-07-13T17:20:21;2.40;;;1.93;;
15669;SDS011;18524;45.190;5.732;2023-07-13T17:25:16;3.43;;;1.97;;
15669;SDS011;18524;45.190;5.732;2023-07-13T17:30:18;2.83;;;2.00;;
15669;SDS011;18524;45.190;5.732;2023-07-13T17:35:16;2.83;;;1.90;;
15669;SDS011;18524;45.190;5.732;2023-07-13T17:40:13;2.70;;;1.70;;
15669;SDS011;18524;45.190;5.732;2023-07-13T17:45:08;1.83;;;1.67;;
15669;SDS011;18524;45.190;5.732;2023-07-13T17:50:00;3.80;;;2.70;;
15669;SDS011;18524;45.190;5.732;2023-07-13T17:54:53;3.30;;;2.20;;
15669;SDS011;18524;45.190;5.732;2023-07-13T17:59:43;3.73;;;2.27;;
15669;SDS011;18524;45.190;5.732;2023-07-13T18:04:34;2.13;;;1.93;;
15669;SDS011;18524;45.190;5.732;2023-07-13T18:09:27;3.57;;;2.37;;
15669;SDS011;18524;45.190;5.732;2023-07-13T18:14:19;2.50;;;1.80;;
15669;SDS011;18524;45.190;5.732;2023-07-13T18:19:21;3.67;;;2.03;;
15669;SDS011;18524;45.190;5.732;2023-07-13T18:24:31;2.73;;;2.50;;
15669;SDS011;18524;45.190;5.732;2023-07-13T18:29:21;2.17;;;1.97;;
15669;SDS011;18524;45.190;5.732;2023-07-13T18:34:12;2.43;;;1.70;;
15669;SDS011;18524;45.190;5.732;2023-07-13T18:39:04;3.17;;;2.20;;
15669;SDS011;18524;45.190;5.732;2023-07-13T18:43:59;2.13;;;1.93;;
15669;SDS011;18524;45.190;5.732;2023-07-13T18:48:51;2.73;;;2.30;;
15669;SDS011;18524;45.190;5.732;2023-07-13T18:53:42;2.13;;;1.93;;
15669;SDS011;18524;45.190;5.732;2023-07-13T18:58:33;3.40;;;2.67;;
15669;SDS011;18524;45.190;5.732;2023-07-13T19:03:24;3.57;;;2.10;;
15669;SDS011;18524;45.190;5.732;2023-07-13T19:08:21;1.90;;;1.40;;
15669;SDS011;18524;45.190;5.732;2023-07-13T19:13:14;4.13;;;1.80;;
15669;SDS011;18524;45.190;5.732;2023-07-13T19:18:12;2.23;;;1.90;;
15669;SDS011;18524;45.190;5.732;2023-07-13T19:23:12;2.20;;;1.80;;
15669;SDS011;18524;45.190;5.732;2023-07-13T19:28:17;4.13;;;1.83;;
15669;SDS011;18524;45.190;5.732;2023-07-13T19:33:14;2.30;;;1.90;;
15669;SDS011;18524;45.190;5.732;2023-07-13T19:38:07;2.47;;;1.63;;
15669;SDS011;18524;45.190;5.732;2023-07-13T19:42:58;2.00;;;1.77;;
15669;SDS011;18524;45.190;5.732;2023-07-13T19:47:48;4.77;;;1.80;;
15669;SDS011;18524;45.190;5.732;2023-07-13T19:52:42;4.70;;;1.70;;
15669;SDS011;18524;45.190;5.732;2023-07-13T19:57:34;3.33;;;2.63;;
15669;SDS011;18524;45.190;5.732;2023-07-13T20:02:25;2.33;;;1.90;;
15669;SDS011;18524;45.190;5.732;2023-07-13T20:07:20;3.77;;;1.60;;
15669;SDS011;18524;45.190;5.732;2023-07-13T20:12:12;4.20;;;1.70;;
15669;SDS011;18524;45.190;5.732;2023-07-13T20:17:19;2.83;;;1.90;;
15669;SDS011;18524;45.190;5.732;2023-07-13T20:22:13;3.30;;;1.90;;
15669;SDS011;18524;45.190;5.732;2023-07-13T20:27:04;4.33;;;2.20;;
15669;SDS011;18524;45.190;5.732;2023-07-13T20:31:55;4.37;;;1.90;;
15669;SDS011;18524;45.190;5.732;2023-07-13T20:36:48;2.10;;;1.87;;
15669;SDS011;18524;45.190;5.732;2023-07-13T20:41:39;3.23;;;1.90;;
15669;SDS011;18524;45.190;5.732;2023-07-13T20:46:30;1.90;;;1.70;;
15669;SDS011;18524;45.190;5.732;2023-07-13T20:51:21;2.93;;;1.70;;
15669;SDS011;18524;45.190;5.732;2023-07-13T20:56:14;4.60;;;2.00;;
15669;SDS011;18524;45.190;5.732;2023-07-13T21:01:05;1.93;;;1.70;;
15669;SDS011;18524;45.190;5.732;2023-07-13T21:06:11;3.27;;;1.70;;
15669;SDS011;18524;45.190;5.732;2023-07-13T21:11:08;2.97;;;2.10;;
15669;SDS011;18524;45.190;5.732;2023-07-13T21:15:59;2.30;;;2.10;;
15669;SDS011;18524;45.190;5.732;2023-07-13T21:21:00;4.20;;;2.20;;
15669;SDS011;18524;45.190;5.732;2023-07-13T21:25:50;2.80;;;2.30;;
15669;SDS011;18524;45.190;5.732;2023-07-13T21:30:40;4.17;;;3.00;;
15669;SDS011;18524;45.190;5.732;2023-07-13T21:40:29;4.77;;;3.80;;
15669;SDS011;18524;45.190;5.732;2023-07-13T21:45:23;5.20;;;3.27;;
15669;SDS011;18524;45.190;5.732;2023-07-13T21:50:14;4.17;;;3.47;;
15669;SDS011;18524;45.190;5.732;2023-07-13T21:55:12;4.23;;;3.47;;
15669;SDS011;18524;45.190;5.732;2023-07-13T22:00:15;5.30;;;3.20;;
15669;SDS011;18524;45.190;5.732;2023-07-13T22:05:14;7.27;;;6.07;;
15669;SDS011;18524;45.190;5.732;2023-07-13T22:10:19;9.13;;;7.90;;
15669;SDS011;18524;45.190;5.732;2023-07-13T22:15:11;11.20;;;7.90;;
15669;SDS011;18524;45.190;5.732;2023-07-13T22:20:02;7.80;;;7.00;;
15669;SDS011;18524;45.190;5.732;2023-07-13T22:24:56;6.43;;;5.80;;
15669;SDS011;18524;45.190;5.732;2023-07-13T22:29:46;6.03;;;4.97;;
15669;SDS011;18524;45.190;5.732;2023-07-13T22:34:36;6.43;;;4.87;;
15669;SDS011;18524;45.190;5.732;2023-07-13T22:39:27;5.37;;;4.10;;
15669;SDS011;18524;45.190;5.732;2023-07-13T22:44:22;4.20;;;3.40;;
15669;SDS011;18524;45.190;5.732;2023-07-13T22:49:17;4.47;;;3.77;;
15669;SDS011;18524;45.190;5.732;2023-07-13T22:54:09;3.97;;;3.63;;
15669;SDS011;18524;45.190;5.732;2023-07-13T22:59:00;4.67;;;3.80;;
15669;SDS011;18524;45.190;5.732;2023-07-13T23:03:51;5.80;;;3.80;;
15669;SDS011;18524;45.190;5.732;2023-07-13T23:08:43;3.40;;;3.10;;
15669;SDS011;18524;45.190;5.732;2023-07-13T23:13:34;3.53;;;2.50;;
15669;SDS011;18524;45.190;5.732;2023-07-13T23:18:24;6.23;;;3.03;;
15669;SDS011;18524;45.190;5.732;2023-07-13T23:23:15;6.10;;;2.90;;
15669;SDS011;18524;45.190;5.732;2023-07-13T23:28:07;3.67;;;2.53;;
15669;SDS011;18524;45.190;5.732;2023-07-13T23:33:04;3.37;;;2.67;;
15669;SDS011;18524;45.190;5.732;2023-07-13T23:38:02;2.83;;;2.40;;
15669;SDS011;18524;45.190;5.732;2023-07-13T23:42:53;3.73;;;2.20;;
15669;SDS011;18524;45.190;5.732;2023-07-13T23:47:44;2.50;;;2.30;;
15669;SDS011;18524;45.190;5.732;2023-07-13T23:52:37;2.70;;;2.50;;
15669;SDS011;18524;45.190;5.732;2023-07-13T23:57:27;3.37;;;3.17;;
